createdAt,value
2022-11-08T00:00:20.162Z,5.50
2022-11-08T00:02:48.185Z,5.50
2022-11-08T00:05:35.168Z,5.40
2022-11-08T00:08:22.593Z,5.40
2022-11-08T00:11:08.203Z,5.30
2022-11-08T00:13:53.670Z,5.40
2022-11-08T00:16:21.701Z,5.40
2022-11-08T00:18:49.573Z,5.50
2022-11-08T00:21:18.835Z,5.50
2022-11-08T00:23:48.053Z,5.50
2022-11-08T00:26:15.985Z,5.50
2022-11-08T00:28:43.853Z,5.50
2022-11-08T00:31:12.098Z,5.40
2022-11-08T00:33:40.093Z,5.40
2022-11-08T00:36:08.501Z,5.40
2022-11-08T00:38:37.824Z,5.50
2022-11-08T00:41:05.910Z,5.50
2022-11-08T00:43:33.832Z,5.50
2022-11-08T00:46:01.905Z,5.50
2022-11-08T00:48:29.803Z,5.60
2022-11-08T00:51:02.489Z,5.50
2022-11-08T00:53:30.487Z,5.30
2022-11-08T00:56:03.595Z,5.40
2022-11-08T00:58:31.911Z,5.40
2022-11-08T01:01:00.249Z,5.40
2022-11-08T01:03:28.361Z,5.20
2022-11-08T01:05:56.374Z,5.00
2022-11-08T01:08:24.883Z,5.00
2022-11-08T01:10:54.055Z,5.00
2022-11-08T01:13:23.660Z,5.10
2022-11-08T01:15:51.628Z,5.10
2022-11-08T01:18:19.990Z,5.00
2022-11-08T01:20:50.602Z,4.90
2022-11-08T01:23:19.362Z,4.90
2022-11-08T01:25:48.301Z,4.80
2022-11-08T01:28:17.139Z,4.70
2022-11-08T01:30:47.381Z,4.70
2022-11-08T01:33:16.501Z,4.80
2022-11-08T01:35:46.142Z,4.90
2022-11-08T01:38:14.817Z,4.90
2022-11-08T01:40:44.515Z,4.90
2022-11-08T01:43:41.350Z,5.00
2022-11-08T01:46:38.372Z,4.90
2022-11-08T01:49:39.174Z,4.90
2022-11-08T01:52:13.796Z,4.90
2022-11-08T01:54:47.206Z,4.90
2022-11-08T01:57:20.030Z,4.90
2022-11-08T01:59:50.479Z,5.00
2022-11-08T02:02:20.894Z,5.00
2022-11-08T02:04:48.943Z,5.00
2022-11-08T02:07:18.446Z,5.00
2022-11-08T02:09:48.490Z,5.00
2022-11-08T02:12:18.593Z,5.00
2022-11-08T02:14:46.579Z,5.00
2022-11-08T02:17:14.807Z,5.00
2022-11-08T02:19:46.535Z,5.00
2022-11-08T02:22:23.476Z,5.00
2022-11-08T02:24:54.191Z,4.80
2022-11-08T02:27:22.157Z,4.70
2022-11-08T02:29:54.015Z,4.70
2022-11-08T02:32:22.733Z,4.40
2022-11-08T02:34:55.461Z,4.30
2022-11-08T02:37:26.088Z,4.30
2022-11-08T02:39:55.399Z,4.20
2022-11-08T02:42:23.328Z,4.30
2022-11-08T02:44:51.274Z,4.20
2022-11-08T02:47:19.231Z,4.10
2022-11-08T02:49:47.150Z,4.20
2022-11-08T02:52:15.113Z,4.20
2022-11-08T02:54:43.082Z,4.20
2022-11-08T02:57:12.359Z,4.20
2022-11-08T02:59:40.311Z,4.30
2022-11-08T03:02:08.593Z,4.30
2022-11-08T03:04:36.643Z,4.20
2022-11-08T03:07:04.697Z,4.20
2022-11-08T03:09:34.651Z,4.20
2022-11-08T03:12:02.631Z,4.10
2022-11-08T03:14:32.011Z,4.10
2022-11-08T03:16:59.908Z,4.10
2022-11-08T03:19:27.824Z,4.10
2022-11-08T03:21:55.754Z,4.00
2022-11-08T03:24:23.795Z,4.00
2022-11-08T03:26:51.703Z,4.00
2022-11-08T03:29:19.683Z,3.90
2022-11-08T03:31:48.948Z,3.90
2022-11-08T03:34:17.186Z,3.80
2022-11-08T03:36:45.257Z,3.70
2022-11-08T03:39:13.252Z,3.60
2022-11-08T03:41:41.137Z,3.60
2022-11-08T03:44:09.209Z,3.60
2022-11-08T03:46:37.193Z,3.70
2022-11-08T03:49:06.486Z,3.60
2022-11-08T03:51:34.550Z,3.60
2022-11-08T03:54:02.425Z,3.60
2022-11-08T03:56:30.344Z,3.60
2022-11-08T03:58:58.269Z,3.60
2022-11-08T04:01:26.409Z,3.70
2022-11-08T04:03:54.389Z,3.60
2022-11-08T04:06:23.807Z,3.60
2022-11-08T04:08:51.775Z,3.60
2022-11-08T04:11:37.565Z,3.50
2022-11-08T04:14:22.802Z,3.60
2022-11-08T04:16:50.859Z,3.60
2022-11-08T04:19:36.128Z,3.50
2022-11-08T04:22:07.103Z,3.60
2022-11-08T04:24:35.255Z,3.50
2022-11-08T04:27:03.656Z,3.50
2022-11-08T04:29:31.828Z,3.40
2022-11-08T04:31:59.844Z,3.40
2022-11-08T04:34:27.920Z,3.50
2022-11-08T04:36:55.844Z,3.40
2022-11-08T04:39:25.088Z,3.50
2022-11-08T04:41:56.417Z,3.40
2022-11-08T04:44:27.207Z,3.30
2022-11-08T04:46:55.133Z,3.10
2022-11-08T04:49:23.039Z,3.10
2022-11-08T04:51:50.946Z,3.10
2022-11-08T04:57:34.809Z,3.10
2022-11-08T05:00:02.991Z,3.20
2022-11-08T05:02:31.040Z,3.20
2022-11-08T05:04:59.069Z,3.30
2022-11-08T05:07:27.001Z,3.30
2022-11-08T05:09:59.965Z,3.20
2022-11-08T05:12:30.204Z,3.30
2022-11-08T05:14:58.180Z,3.20
2022-11-08T05:17:26.087Z,3.10
2022-11-08T05:20:11.851Z,3.10
2022-11-08T05:23:11.980Z,3.10
2022-11-08T05:25:43.981Z,2.80
2022-11-08T05:28:11.891Z,2.80
2022-11-08T05:30:39.786Z,2.90
2022-11-08T05:33:07.768Z,3.00
2022-11-08T05:35:35.975Z,3.00
2022-11-08T05:38:03.881Z,3.10
2022-11-08T05:43:21.212Z,3.20
2022-11-08T05:45:49.251Z,3.10
2022-11-08T05:48:17.488Z,3.10
2022-11-08T05:50:45.561Z,3.10
2022-11-08T05:53:13.496Z,3.10
2022-11-08T05:55:41.397Z,3.20
2022-11-08T05:58:09.640Z,3.20
2022-11-08T06:00:39.064Z,3.20
2022-11-08T06:03:07.855Z,3.20
2022-11-08T06:05:38.804Z,3.30
2022-11-08T06:08:06.725Z,3.20
2022-11-08T06:10:35.204Z,3.20
2022-11-08T06:13:03.617Z,3.20
2022-11-08T06:15:31.585Z,3.30
2022-11-08T06:18:04.434Z,3.30
2022-11-08T06:20:32.669Z,3.30
2022-11-08T06:23:00.707Z,3.40
2022-11-08T06:25:28.648Z,3.40
2022-11-08T06:27:56.621Z,3.30
2022-11-08T06:30:24.534Z,3.20
2022-11-08T06:32:52.443Z,3.20
2022-11-08T06:35:21.756Z,3.20
2022-11-08T06:37:49.887Z,3.30
2022-11-08T06:40:17.913Z,3.40
2022-11-08T06:42:45.818Z,3.40
2022-11-08T06:45:13.807Z,3.40
2022-11-08T06:47:41.691Z,3.50
2022-11-08T06:50:09.730Z,3.60
2022-11-08T06:52:40.760Z,3.60
2022-11-08T06:55:09.378Z,3.70
2022-11-08T06:57:37.302Z,3.90
2022-11-08T07:00:06.088Z,4.00
2022-11-08T07:02:34.224Z,3.90
2022-11-08T07:05:02.273Z,4.30
2022-11-08T07:07:30.205Z,4.40
2022-11-08T07:10:03.934Z,4.70
2022-11-08T07:12:32.459Z,4.80
2022-11-08T07:15:00.427Z,5.00
2022-11-08T07:17:28.335Z,5.10
2022-11-08T07:19:56.208Z,5.10
2022-11-08T07:22:24.142Z,5.30
2022-11-08T07:24:52.089Z,5.40
2022-11-08T07:27:21.349Z,5.60
2022-11-08T07:29:49.396Z,5.70
2022-11-08T07:32:17.308Z,5.90
2022-11-08T07:34:45.209Z,6.00
2022-11-08T07:37:13.155Z,6.10
2022-11-08T07:39:41.042Z,6.50
2022-11-08T07:42:08.996Z,6.90
2022-11-08T07:44:38.419Z,7.10
2022-11-08T07:47:06.417Z,7.50
2022-11-08T07:49:36.285Z,7.90
2022-11-08T07:52:04.441Z,8.20
2022-11-08T07:54:32.313Z,8.60
2022-11-08T07:57:00.308Z,8.90
2022-11-08T07:59:28.217Z,10.00
2022-11-08T08:01:57.541Z,10.70
2022-11-08T08:04:25.479Z,11.50
2022-11-08T08:06:53.393Z,12.50
2022-11-08T08:09:21.525Z,13.20
2022-11-08T08:11:49.592Z,13.70
2022-11-08T08:14:17.804Z,14.40
2022-11-08T08:16:45.990Z,15.00
2022-11-08T08:19:15.294Z,15.20
2022-11-08T08:21:43.230Z,14.70
2022-11-08T08:24:11.173Z,14.70
2022-11-08T08:26:39.463Z,15.20
2022-11-08T08:29:07.404Z,15.30
2022-11-08T08:31:35.295Z,15.90
2022-11-08T08:34:03.239Z,16.40
2022-11-08T08:36:32.563Z,16.30
2022-11-08T08:39:00.519Z,16.40
2022-11-08T08:41:28.454Z,16.70
2022-11-08T08:43:56.475Z,17.60
2022-11-08T08:46:24.412Z,18.10
2022-11-08T08:48:52.286Z,19.10
2022-11-08T08:51:20.358Z,19.30
2022-11-08T08:53:49.609Z,18.50
2022-11-08T08:56:17.509Z,19.10
2022-11-08T08:58:45.510Z,19.50
2022-11-08T09:04:01.801Z,19.80
2022-11-08T09:06:29.786Z,18.50
2022-11-08T09:08:59.172Z,18.90
2022-11-08T09:11:27.153Z,19.20
2022-11-08T09:13:55.075Z,19.90
2022-11-08T09:16:23.040Z,20.70
2022-11-08T09:18:51.046Z,20.70
2022-11-08T09:21:19.118Z,20.40
2022-11-08T09:23:47.084Z,19.20
2022-11-08T09:26:16.418Z,18.20
2022-11-08T09:28:44.518Z,17.30
2022-11-08T09:31:13.556Z,16.70
2022-11-08T09:33:42.364Z,17.20
2022-11-08T09:36:13.947Z,17.60
2022-11-08T09:38:42.499Z,17.20
2022-11-08T09:41:36.781Z,17.20
2022-11-08T09:44:21.902Z,17.50
2022-11-08T09:46:53.820Z,18.50
2022-11-08T09:49:27.342Z,18.50
2022-11-08T09:51:55.449Z,18.30
2022-11-08T09:54:27.374Z,19.10
2022-11-08T09:56:56.807Z,20.50
2022-11-08T09:59:33.071Z,22.60
2022-11-08T10:02:01.169Z,23.10
2022-11-08T10:04:32.939Z,23.50
2022-11-08T10:07:13.946Z,23.80
2022-11-08T10:10:09.922Z,23.20
2022-11-08T10:12:44.217Z,23.30
2022-11-08T10:15:22.419Z,24.30
2022-11-08T10:18:14.672Z,24.20
2022-11-08T10:20:54.574Z,25.40
2022-11-08T10:23:26.149Z,25.20
2022-11-08T10:25:56.994Z,24.60
2022-11-08T10:28:32.811Z,23.80
2022-11-08T10:31:01.122Z,23.10
2022-11-08T10:33:34.171Z,22.60
2022-11-08T10:36:07.842Z,21.70
2022-11-08T10:38:41.046Z,21.40
2022-11-08T10:41:15.308Z,20.80
2022-11-08T10:43:48.623Z,19.80
2022-11-08T10:46:26.611Z,19.70
2022-11-08T10:48:54.546Z,19.70
2022-11-08T10:51:22.422Z,19.70
2022-11-08T10:53:50.348Z,19.70
2022-11-08T10:56:18.304Z,19.90
2022-11-08T10:58:47.526Z,20.00
2022-11-08T11:01:18.091Z,20.10
2022-11-08T11:03:47.606Z,20.30
2022-11-08T11:06:24.645Z,21.30
2022-11-08T11:08:55.746Z,22.70
2022-11-08T11:11:26.803Z,23.80
2022-11-08T11:14:18.434Z,24.20
2022-11-08T11:16:56.327Z,24.30
2022-11-08T11:19:26.123Z,23.90
2022-11-08T11:22:02.930Z,24.10
2022-11-08T11:24:31.206Z,24.80
2022-11-08T11:27:05.084Z,25.10
2022-11-08T11:29:36.023Z,25.00
2022-11-08T11:32:26.029Z,24.80
2022-11-08T11:34:57.201Z,23.70
2022-11-08T11:37:37.472Z,23.60
2022-11-08T11:40:15.212Z,24.50
2022-11-08T11:42:52.196Z,24.00
2022-11-08T11:45:28.860Z,23.70
2022-11-08T11:47:58.729Z,23.10
2022-11-08T11:50:35.023Z,23.70
2022-11-08T11:53:05.962Z,23.60
2022-11-08T11:55:52.466Z,23.40
2022-11-08T11:58:37.373Z,22.00
2022-11-08T12:01:15.047Z,21.70
2022-11-08T12:04:11.237Z,21.10
2022-11-08T12:06:46.620Z,21.00
2022-11-08T12:09:27.073Z,19.60
2022-11-08T12:12:06.779Z,19.70
2022-11-08T12:14:49.386Z,19.60
2022-11-08T12:17:51.002Z,19.00
2022-11-08T12:20:35.055Z,18.90
2022-11-08T12:23:19.599Z,19.20
2022-11-08T12:25:55.721Z,19.10
2022-11-08T12:28:45.848Z,19.20
2022-11-08T12:31:25.187Z,19.50
2022-11-08T12:34:15.220Z,19.30
2022-11-08T12:36:53.998Z,18.50
2022-11-08T12:39:32.315Z,18.60
2022-11-08T12:42:24.370Z,18.90
2022-11-08T12:45:15.426Z,19.00
2022-11-08T12:47:47.743Z,18.90
2022-11-08T12:50:26.406Z,18.80
2022-11-08T12:53:23.596Z,18.50
2022-11-08T12:55:53.870Z,18.60
2022-11-08T12:58:33.987Z,18.60
2022-11-08T13:01:07.229Z,18.60
2022-11-08T13:04:05.887Z,18.50
2022-11-08T13:06:42.485Z,18.50
2022-11-08T13:09:17.771Z,18.20
2022-11-08T13:11:50.740Z,18.20
2022-11-08T13:14:20.219Z,18.00
2022-11-08T13:17:15.179Z,18.00
2022-11-08T13:20:32.852Z,18.20
2022-11-08T13:23:07.971Z,18.20
2022-11-08T13:25:43.286Z,18.20
2022-11-08T13:28:39.424Z,18.40
2022-11-08T13:31:22.101Z,18.40
2022-11-08T13:34:06.791Z,18.40
2022-11-08T13:36:46.521Z,18.40
2022-11-08T13:40:00.341Z,18.20
2022-11-08T13:42:38.021Z,18.10
2022-11-08T13:45:25.796Z,17.90
2022-11-08T13:47:56.343Z,17.80
2022-11-08T13:50:46.923Z,17.80
2022-11-08T13:53:42.795Z,17.70
2022-11-08T13:56:45.425Z,17.60
2022-11-08T13:59:52.317Z,17.60
2022-11-08T14:02:41.487Z,17.40
2022-11-08T14:05:37.518Z,17.40
2022-11-08T14:08:21.769Z,17.50
2022-11-08T14:11:27.416Z,17.50
2022-11-08T14:14:09.259Z,17.40
2022-11-08T14:16:44.790Z,17.40
2022-11-08T14:19:22.392Z,17.30
2022-11-08T14:21:53.676Z,17.00
2022-11-08T14:24:25.506Z,16.90
2022-11-08T14:26:53.809Z,16.80
2022-11-08T14:29:24.638Z,16.80
2022-11-08T14:32:04.472Z,16.80
2022-11-08T14:34:36.432Z,16.90
2022-11-08T14:37:06.333Z,16.80
2022-11-08T14:39:36.232Z,16.50
2022-11-08T14:42:06.509Z,16.30
2022-11-08T14:44:34.465Z,16.30
2022-11-08T14:47:02.490Z,16.20
2022-11-08T14:49:33.259Z,16.10
2022-11-08T14:52:14.480Z,15.90
2022-11-08T14:54:44.705Z,15.90
2022-11-08T14:57:32.909Z,15.80
2022-11-08T15:00:04.215Z,15.70
2022-11-08T15:02:33.019Z,15.60
2022-11-08T15:05:00.958Z,15.40
2022-11-08T15:07:30.356Z,15.20
2022-11-08T15:09:58.437Z,15.10
2022-11-08T15:12:26.419Z,14.90
2022-11-08T15:14:58.070Z,14.80
2022-11-08T15:17:35.367Z,14.70
2022-11-08T15:20:15.782Z,14.50
2022-11-08T15:22:46.374Z,14.40
2022-11-08T15:25:24.551Z,14.10
2022-11-08T15:27:54.914Z,13.90
2022-11-08T15:30:32.722Z,13.80
2022-11-08T15:33:02.511Z,13.70
2022-11-08T15:35:34.824Z,13.50
2022-11-08T15:38:06.208Z,13.20
2022-11-08T15:40:36.816Z,13.00
2022-11-08T15:43:05.118Z,12.80
2022-11-08T15:45:35.624Z,12.60
2022-11-08T15:48:20.744Z,12.50
2022-11-08T15:50:48.871Z,12.20
2022-11-08T15:53:18.210Z,11.90
2022-11-08T15:55:50.974Z,11.70
2022-11-08T15:58:26.582Z,11.50
2022-11-08T16:00:54.968Z,11.40
2022-11-08T16:03:22.957Z,11.20
2022-11-08T16:05:50.906Z,11.00
2022-11-08T16:08:21.142Z,10.90
2022-11-08T16:10:51.655Z,10.70
2022-11-08T16:13:22.337Z,10.80
2022-11-08T16:15:50.424Z,10.70
2022-11-08T16:18:19.974Z,10.80
2022-11-08T16:20:48.317Z,10.90
2022-11-08T16:23:16.446Z,10.90
2022-11-08T16:25:48.738Z,10.70
2022-11-08T16:28:22.679Z,10.40
2022-11-08T16:30:50.960Z,10.40
2022-11-08T16:33:21.840Z,10.30
2022-11-08T16:35:50.250Z,10.00
2022-11-08T16:38:23.230Z,9.90
2022-11-08T16:40:52.686Z,10.00
2022-11-08T16:43:20.713Z,10.20
2022-11-08T16:46:05.574Z,10.20
2022-11-08T16:48:34.752Z,10.20
2022-11-08T16:51:04.112Z,10.20
2022-11-08T16:53:32.275Z,10.20
2022-11-08T16:56:01.638Z,10.10
2022-11-08T16:58:29.604Z,10.10
2022-11-08T17:00:58.269Z,10.10
2022-11-08T17:03:29.459Z,10.10
2022-11-08T17:05:57.602Z,10.10
2022-11-08T17:08:26.091Z,10.10
2022-11-08T17:10:54.504Z,10.00
2022-11-08T17:13:24.159Z,9.90
2022-11-08T17:15:52.235Z,9.90
2022-11-08T17:18:21.588Z,9.90
2022-11-08T17:20:51.521Z,9.90
2022-11-08T17:23:19.919Z,9.90
2022-11-08T17:25:48.263Z,9.80
2022-11-08T17:28:16.576Z,9.70
2022-11-08T17:30:46.393Z,9.60
2022-11-08T17:33:14.996Z,9.60
2022-11-08T17:36:15.260Z,9.60
2022-11-08T17:38:43.825Z,9.50
2022-11-08T17:41:13.853Z,9.40
2022-11-08T17:43:42.321Z,9.40
2022-11-08T17:46:12.500Z,9.50
2022-11-08T17:48:41.208Z,9.40
2022-11-08T17:51:09.755Z,9.50
2022-11-08T17:53:37.771Z,9.30
2022-11-08T17:56:07.421Z,9.30
2022-11-08T17:58:37.862Z,9.30
2022-11-08T18:01:07.780Z,9.30
2022-11-08T18:03:37.250Z,9.20
2022-11-08T18:06:07.657Z,9.20
2022-11-08T18:08:36.800Z,9.10
2022-11-08T18:11:05.445Z,9.00
2022-11-08T18:13:35.053Z,9.00
2022-11-08T18:16:10.679Z,8.90
2022-11-08T18:18:40.360Z,8.90
2022-11-08T18:21:09.194Z,8.80
2022-11-08T18:23:37.343Z,8.80
2022-11-08T18:26:05.366Z,8.80
2022-11-08T18:28:33.323Z,8.80
2022-11-08T18:31:05.863Z,8.80
2022-11-08T18:33:33.896Z,8.80
2022-11-08T18:36:05.950Z,8.70
2022-11-08T18:38:35.558Z,8.80
2022-11-08T18:41:03.494Z,8.80
2022-11-08T18:43:31.415Z,8.90
2022-11-08T18:46:03.419Z,8.90
2022-11-08T18:48:32.304Z,8.90
2022-11-08T18:51:00.499Z,8.90
2022-11-08T18:53:29.813Z,8.90
2022-11-08T18:55:57.761Z,8.80
2022-11-08T18:58:26.189Z,8.80
2022-11-08T19:00:55.091Z,8.90
2022-11-08T19:03:23.748Z,9.00
2022-11-08T19:05:52.063Z,8.90
2022-11-08T19:08:21.463Z,8.90
2022-11-08T19:10:51.852Z,8.90
2022-11-08T19:13:20.496Z,8.90
2022-11-08T19:15:57.334Z,8.90
2022-11-08T19:18:25.449Z,9.00
2022-11-08T19:20:57.560Z,9.10
2022-11-08T19:23:25.556Z,9.00
2022-11-08T19:25:59.831Z,9.00
2022-11-08T19:28:32.801Z,9.00
2022-11-08T19:31:01.149Z,9.10
2022-11-08T19:33:30.439Z,9.00
2022-11-08T19:36:02.058Z,9.10
2022-11-08T19:38:30.250Z,9.10
2022-11-08T19:41:02.249Z,9.10
2022-11-08T19:43:31.229Z,9.20
2022-11-08T19:46:03.327Z,9.20
2022-11-08T19:48:32.623Z,9.20
2022-11-08T19:51:02.661Z,9.20
2022-11-08T19:53:30.933Z,9.10
2022-11-08T19:56:04.009Z,9.20
2022-11-08T19:58:32.940Z,9.10
2022-11-08T20:01:07.329Z,9.10
2022-11-08T20:03:35.281Z,9.00
2022-11-08T20:06:03.916Z,9.00
2022-11-08T20:08:32.424Z,9.00
2022-11-08T20:11:00.567Z,9.10
2022-11-08T20:13:29.867Z,9.10
2022-11-08T20:16:09.826Z,9.10
2022-11-08T20:18:37.835Z,9.10
2022-11-08T20:21:06.916Z,9.20
2022-11-08T20:23:35.514Z,9.10
2022-11-08T20:26:05.016Z,9.10
2022-11-08T20:28:36.310Z,8.90
2022-11-08T20:31:11.893Z,9.00
2022-11-08T20:33:40.525Z,9.00
2022-11-08T20:36:10.649Z,9.10
2022-11-08T20:38:38.837Z,9.10
2022-11-08T20:41:08.564Z,9.20
2022-11-08T20:43:46.986Z,9.20
2022-11-08T20:49:00.313Z,9.30
2022-11-08T20:51:29.858Z,9.30
2022-11-08T20:53:58.999Z,9.20
2022-11-08T20:56:29.392Z,9.20
2022-11-08T20:58:59.612Z,9.20
2022-11-08T21:01:29.771Z,9.20
2022-11-08T21:03:59.108Z,9.10
2022-11-08T21:06:29.341Z,9.10
2022-11-08T21:09:00.844Z,9.10
2022-11-08T21:11:31.175Z,9.00
2022-11-08T21:14:00.434Z,9.00
2022-11-08T21:16:30.883Z,8.90
2022-11-08T21:19:00.260Z,8.80
2022-11-08T21:21:28.445Z,8.70
2022-11-08T21:23:56.370Z,8.70
2022-11-08T21:26:28.561Z,8.60
2022-11-08T21:28:56.476Z,8.60
2022-11-08T21:31:25.821Z,8.50
2022-11-08T21:33:53.898Z,8.50
2022-11-08T21:36:26.554Z,8.50
2022-11-08T21:38:55.509Z,8.50
2022-11-08T21:41:23.500Z,8.40
2022-11-08T21:43:51.444Z,8.40
2022-11-08T21:46:21.278Z,8.30
2022-11-08T21:48:54.566Z,8.20
2022-11-08T21:51:23.038Z,8.20
2022-11-08T21:53:54.740Z,8.10
2022-11-08T21:56:24.180Z,8.10
2022-11-08T21:58:52.403Z,8.00
2022-11-08T22:01:24.164Z,8.00
2022-11-08T22:03:56.735Z,8.00
2022-11-08T22:06:24.672Z,8.00
2022-11-08T22:08:52.911Z,7.90
2022-11-08T22:11:20.964Z,7.90
2022-11-08T22:13:48.955Z,7.80
2022-11-08T22:16:16.913Z,7.80
2022-11-08T22:21:41.257Z,7.60
2022-11-08T22:24:12.239Z,7.60
2022-11-08T22:26:40.878Z,7.60
2022-11-08T22:29:08.845Z,7.60
2022-11-08T22:31:37.151Z,7.60
2022-11-08T22:34:07.889Z,7.40
2022-11-08T22:36:44.080Z,7.50
2022-11-08T22:39:13.739Z,7.40
2022-11-08T22:41:41.830Z,7.40
2022-11-08T22:44:12.258Z,7.40
2022-11-08T22:46:42.197Z,7.30
2022-11-08T22:49:10.872Z,7.30
2022-11-08T22:51:42.440Z,7.40
2022-11-08T22:54:10.687Z,7.30
2022-11-08T22:56:40.110Z,7.30
2022-11-08T22:59:08.689Z,7.30
2022-11-08T23:01:36.883Z,7.20
2022-11-08T23:04:07.159Z,7.20
2022-11-08T23:06:35.247Z,7.10
2022-11-08T23:09:04.969Z,7.10
2022-11-08T23:11:50.849Z,7.00
2022-11-08T23:14:37.735Z,7.00
2022-11-08T23:17:08.126Z,7.00
2022-11-08T23:19:53.943Z,6.80
2022-11-08T23:22:40.364Z,7.00
2022-11-08T23:25:10.408Z,7.00
2022-11-08T23:27:55.760Z,7.00
2022-11-08T23:30:41.245Z,7.10
2022-11-08T23:33:09.319Z,7.00
2022-11-08T23:35:37.335Z,6.90
2022-11-08T23:38:05.295Z,6.90
2022-11-08T23:40:52.371Z,6.80
2022-11-08T23:43:38.732Z,6.80
2022-11-08T23:46:08.206Z,6.80
2022-11-08T23:48:37.044Z,6.70
2022-11-08T23:51:05.724Z,6.70
2022-11-08T23:53:36.553Z,6.70
2022-11-08T23:56:06.705Z,6.70
2022-11-08T23:58:35.255Z,6.60
